ENQA

Troll A Platform Heliport

Norway
METAR ENQA 181720Z AUTO 18032KT 0150NDV -RA NCD 13/13 Q0991 RERA W11/S5
Observed Flight Rules
Sep-18 @ 17:20 UTC (49 minutes ago)
Wind Clouds Conditions
180° at 32 knots
  • Clear skies
  • Light Rain
Temperatures Readings
Current 13°C / 55°F
Dewpoint 13°C / 55°F
Humidity 100%
Altimeter 29.26" Hg
Pressure 991 hPa
Elevation 20
METAR ENQA 181720Z AUTO 18032KT 0150NDV -RA NCD 13/13 Q0991 RERA W11/S5
Observed Flight Rules
Sep-18 @ 17:20 UTC
(49 minutes ago)
Wind
180° at 32 knots
Clouds
  • Clear skies
Conditions
  • Light Rain
Temperature Dewpoint
13°C / 55°F 13°C / 55°F
Humidity Altimeter Pressure
100% 29.26" Hg 991 hPa